createdAt,value
2018-07-06T00:00:09.257Z,19.7
2018-07-06T00:01:10.620Z,19.6
2018-07-06T00:02:11.982Z,19.7
2018-07-06T00:03:13.339Z,19.6
2018-07-06T00:04:14.716Z,19.6
2018-07-06T00:05:16.075Z,19.7
2018-07-06T00:06:17.439Z,19.7
2018-07-06T00:07:18.796Z,19.6
2018-07-06T00:08:20.161Z,19.6
2018-07-06T00:09:21.525Z,19.6
2018-07-06T00:10:22.885Z,19.6
2018-07-06T00:11:24.249Z,19.6
2018-07-06T00:12:25.687Z,19.6
2018-07-06T00:13:26.969Z,19.6
2018-07-06T00:14:28.328Z,19.6
2018-07-06T00:15:29.686Z,19.6
2018-07-06T00:16:31.055Z,19.5
2018-07-06T00:17:32.428Z,19.5
2018-07-06T00:18:33.791Z,19.6
2018-07-06T00:19:35.147Z,19.6
2018-07-06T00:20:36.497Z,19.5
2018-07-06T00:21:37.854Z,19.6
2018-07-06T00:22:39.227Z,19.5
2018-07-06T00:23:40.592Z,19.6
2018-07-06T00:24:41.964Z,19.5
2018-07-06T00:25:43.319Z,19.5
2018-07-06T00:26:44.699Z,19.6
2018-07-06T00:27:46.060Z,19.5
2018-07-06T00:28:47.416Z,19.6
2018-07-06T00:29:48.785Z,19.5
2018-07-06T00:30:50.149Z,19.6
2018-07-06T00:31:51.513Z,19.6
2018-07-06T00:32:52.869Z,19.5
2018-07-06T00:33:54.234Z,19.4
2018-07-06T00:34:55.585Z,19.5
2018-07-06T00:35:56.959Z,19.4
2018-07-06T00:36:58.314Z,19.4
2018-07-06T00:37:59.697Z,19.5
2018-07-06T00:39:01.064Z,19.5
2018-07-06T00:40:02.473Z,19.4
2018-07-06T00:41:03.831Z,19.5
2018-07-06T00:42:05.195Z,19.5
2018-07-06T00:43:06.549Z,19.5
2018-07-06T00:44:07.915Z,19.4
2018-07-06T00:45:09.284Z,19.5
2018-07-06T00:46:10.645Z,19.5
2018-07-06T00:47:12.010Z,19.5
2018-07-06T00:48:13.355Z,19.5
2018-07-06T00:49:14.722Z,19.6
2018-07-06T00:50:16.092Z,19.6
2018-07-06T00:51:17.450Z,19.5
2018-07-06T00:52:18.816Z,19.5
2018-07-06T00:53:20.189Z,19.5
2018-07-06T00:54:21.607Z,19.5
2018-07-06T00:55:22.965Z,19.5
2018-07-06T00:56:24.372Z,19.5
2018-07-06T00:57:25.690Z,19.4
2018-07-06T00:58:27.052Z,19.4
2018-07-06T00:59:28.425Z,19.4
2018-07-06T01:00:29.789Z,19.4
2018-07-06T01:01:31.198Z,19.4
2018-07-06T01:02:32.537Z,19.5
2018-07-06T01:03:33.890Z,19.4
2018-07-06T01:04:35.252Z,19.5
2018-07-06T01:05:36.612Z,19.6
2018-07-06T01:06:37.977Z,19.5
2018-07-06T01:07:39.346Z,19.4
2018-07-06T01:08:40.702Z,19.5
2018-07-06T01:09:42.112Z,19.4
2018-07-06T01:10:44.388Z,19.5
2018-07-06T01:11:45.756Z,19.4
2018-07-06T01:12:47.146Z,19.4
2018-07-06T01:13:48.500Z,19.4
2018-07-06T01:14:49.868Z,19.4
2018-07-06T01:15:51.221Z,19.4
2018-07-06T01:16:52.586Z,19.4
2018-07-06T01:17:53.940Z,19.4
2018-07-06T01:18:55.306Z,19.5
2018-07-06T01:19:56.671Z,19.4
2018-07-06T01:20:58.037Z,19.4
2018-07-06T01:21:59.396Z,19.4
2018-07-06T01:23:00.764Z,19.4
2018-07-06T01:24:02.133Z,19.4
2018-07-06T01:25:03.485Z,19.4
2018-07-06T01:26:04.856Z,19.5
2018-07-06T01:27:06.217Z,19.4
2018-07-06T01:28:07.576Z,19.4
2018-07-06T01:29:08.929Z,19.4
2018-07-06T01:30:10.307Z,19.4
2018-07-06T01:31:11.669Z,19.4
2018-07-06T01:32:13.028Z,19.4
2018-07-06T01:33:15.005Z,19.5
2018-07-06T01:34:16.362Z,19.4
2018-07-06T01:35:17.724Z,19.5
2018-07-06T01:36:19.092Z,19.5
2018-07-06T01:37:20.460Z,19.4
2018-07-06T01:38:21.815Z,19.4
2018-07-06T01:39:23.182Z,19.5
2018-07-06T01:40:24.540Z,19.4
2018-07-06T01:41:25.906Z,19.3
2018-07-06T01:42:27.267Z,19.4
2018-07-06T01:43:28.630Z,19.4
2018-07-06T01:44:29.986Z,19.4
2018-07-06T01:45:31.346Z,19.4
2018-07-06T01:46:32.704Z,19.4
2018-07-06T01:47:34.081Z,19.3
2018-07-06T01:48:35.450Z,19.3
2018-07-06T01:49:36.809Z,19.3
2018-07-06T01:50:38.171Z,19.3
2018-07-06T01:51:39.546Z,19.3
2018-07-06T01:52:40.901Z,19.3
2018-07-06T01:53:42.266Z,19.3
2018-07-06T01:54:43.652Z,19.2
2018-07-06T01:55:45.031Z,19.2
2018-07-06T01:56:46.391Z,19.3
2018-07-06T01:57:47.768Z,19.2
2018-07-06T01:58:49.127Z,19.2
2018-07-06T01:59:50.489Z,19.3
2018-07-06T02:00:51.846Z,19.2
2018-07-06T02:01:53.207Z,19.2
2018-07-06T02:02:54.573Z,19.2
2018-07-06T02:03:55.938Z,19.2
2018-07-06T02:04:57.300Z,19.2
2018-07-06T02:05:58.667Z,19.3
2018-07-06T02:07:00.023Z,19.3
2018-07-06T02:08:01.378Z,19.3
2018-07-06T02:09:02.753Z,19.2
2018-07-06T02:10:04.103Z,19.3
2018-07-06T02:11:05.463Z,19.3
2018-07-06T02:12:06.818Z,19.3
2018-07-06T02:13:08.186Z,19.3
2018-07-06T02:14:09.546Z,19.3
2018-07-06T02:15:12.768Z,19.3
2018-07-06T02:16:14.806Z,19.3
2018-07-06T02:17:16.168Z,19.3
2018-07-06T02:18:17.521Z,19.2
2018-07-06T02:19:18.891Z,19.3
2018-07-06T02:20:20.256Z,19.2
2018-07-06T02:21:21.612Z,19.3
2018-07-06T02:22:22.963Z,19.3
2018-07-06T02:23:24.327Z,19.3
2018-07-06T02:24:25.693Z,19.2
2018-07-06T02:25:27.048Z,19.3
2018-07-06T02:26:28.420Z,19.3
2018-07-06T02:27:29.781Z,19.2
2018-07-06T02:28:31.137Z,19.2
2018-07-06T02:29:32.497Z,19.2
2018-07-06T02:30:33.861Z,19.3
2018-07-06T02:31:35.211Z,19.3
2018-07-06T02:32:36.573Z,19.3
2018-07-06T02:33:37.936Z,19.3
2018-07-06T02:34:39.293Z,19.3
2018-07-06T02:35:40.663Z,19.3
2018-07-06T02:36:42.034Z,19.3
2018-07-06T02:37:43.389Z,19.2
2018-07-06T02:38:44.748Z,19.3
2018-07-06T02:39:46.102Z,19.3
2018-07-06T02:40:47.471Z,19.2
2018-07-06T02:41:48.846Z,19.3
2018-07-06T02:42:50.201Z,19.3
2018-07-06T02:43:51.557Z,19.4
2018-07-06T02:44:52.917Z,19.4
2018-07-06T02:45:54.279Z,19.3
2018-07-06T02:46:55.653Z,19.4
2018-07-06T02:47:57.003Z,19.4
2018-07-06T02:48:58.376Z,19.3
2018-07-06T02:49:59.748Z,19.4
2018-07-06T02:51:01.109Z,19.4
2018-07-06T02:52:02.474Z,19.4
2018-07-06T02:53:03.832Z,19.3
2018-07-06T02:54:05.191Z,19.4
2018-07-06T02:55:06.564Z,19.3
2018-07-06T02:56:07.927Z,19.3
2018-07-06T02:57:09.284Z,19.3
2018-07-06T02:58:10.652Z,19.3
2018-07-06T02:59:12.014Z,19.2
2018-07-06T03:00:13.377Z,19.3
2018-07-06T03:01:14.742Z,19.2
2018-07-06T03:02:16.109Z,19.2
2018-07-06T03:03:17.472Z,19.2
2018-07-06T03:04:18.892Z,19.3
2018-07-06T03:05:20.252Z,19.2
2018-07-06T03:06:21.617Z,19.3
2018-07-06T03:07:22.987Z,19.3
2018-07-06T03:08:24.354Z,19.3
2018-07-06T03:09:25.714Z,19.3
2018-07-06T03:10:27.084Z,19.3
2018-07-06T03:11:28.447Z,19.3
2018-07-06T03:12:29.823Z,19.3
2018-07-06T03:13:31.193Z,19.3
2018-07-06T03:14:32.566Z,19.3
2018-07-06T03:15:33.918Z,19.3
2018-07-06T03:16:35.296Z,19.3
2018-07-06T03:17:36.652Z,19.3
2018-07-06T03:18:38.029Z,19.2
2018-07-06T03:19:39.378Z,19.2
2018-07-06T03:20:40.743Z,19.2
2018-07-06T03:21:42.116Z,19.2
2018-07-06T03:22:43.472Z,19.2
2018-07-06T03:23:44.843Z,19.2
2018-07-06T03:24:46.215Z,19.2
2018-07-06T03:25:47.570Z,19.2
2018-07-06T03:26:48.938Z,19.2
2018-07-06T03:27:50.324Z,19.2
2018-07-06T03:28:51.820Z,19.2
2018-07-06T03:29:52.993Z,19.2
2018-07-06T03:30:54.357Z,19.2
2018-07-06T03:31:55.724Z,19.2
2018-07-06T03:32:57.099Z,19.2
2018-07-06T03:33:58.465Z,19.2
2018-07-06T03:34:59.832Z,19.2
2018-07-06T03:36:01.195Z,19.2
2018-07-06T03:37:02.557Z,19.2
2018-07-06T03:38:03.927Z,19.2
2018-07-06T03:39:05.284Z,19.2
2018-07-06T03:40:06.648Z,19.2
2018-07-06T03:41:08.023Z,19.2
2018-07-06T03:42:09.383Z,19.2
2018-07-06T03:43:10.752Z,19.3
2018-07-06T03:44:12.117Z,19.3
2018-07-06T03:45:13.489Z,19.3
2018-07-06T03:46:14.853Z,19.2
2018-07-06T03:47:16.213Z,19.3
2018-07-06T03:48:17.574Z,19.2
2018-07-06T03:49:18.939Z,19.2
2018-07-06T03:50:20.309Z,19.3
2018-07-06T03:51:21.674Z,19.3
2018-07-06T03:52:23.049Z,19.4
2018-07-06T03:53:24.423Z,19.2
2018-07-06T03:54:25.788Z,19.3
2018-07-06T03:55:27.153Z,19.3
2018-07-06T03:56:28.534Z,19.3
2018-07-06T03:57:29.894Z,19.2
2018-07-06T03:58:31.269Z,19.2
2018-07-06T03:59:32.643Z,19.3
2018-07-06T04:00:34.017Z,19.3
2018-07-06T04:01:35.379Z,19.3
2018-07-06T04:02:36.747Z,19.3
2018-07-06T04:03:38.122Z,19.2
2018-07-06T04:04:39.484Z,19.3
2018-07-06T04:05:40.857Z,19.3
2018-07-06T04:06:42.247Z,19.2
2018-07-06T04:07:44.148Z,19.2
2018-07-06T04:08:45.514Z,19.3
2018-07-06T04:09:46.883Z,19.3
2018-07-06T04:10:48.260Z,19.3
2018-07-06T04:11:49.614Z,19.4
2018-07-06T04:12:50.994Z,19.4
2018-07-06T04:13:52.363Z,19.4
2018-07-06T04:14:53.738Z,19.3
2018-07-06T04:15:55.110Z,19.4
2018-07-06T04:16:56.459Z,19.4
2018-07-06T04:17:57.844Z,19.3
2018-07-06T04:18:59.205Z,19.3
2018-07-06T04:20:00.573Z,19.4
2018-07-06T04:21:01.933Z,19.3
2018-07-06T04:22:03.311Z,19.4
2018-07-06T04:23:04.674Z,19.4
2018-07-06T04:24:06.045Z,19.4
2018-07-06T04:25:07.429Z,19.4
2018-07-06T04:26:08.792Z,19.4
2018-07-06T04:27:10.158Z,19.4
2018-07-06T04:28:11.525Z,19.3
2018-07-06T04:29:12.889Z,19.4
2018-07-06T04:30:14.291Z,19.5
2018-07-06T04:31:15.669Z,19.4
2018-07-06T04:32:17.118Z,19.4
2018-07-06T04:33:18.485Z,19.5
2018-07-06T04:34:19.861Z,19.4
2018-07-06T04:35:21.238Z,19.4
2018-07-06T04:36:22.597Z,19.5
2018-07-06T04:37:23.963Z,19.4
2018-07-06T04:38:25.325Z,19.4
2018-07-06T04:39:26.702Z,19.5
2018-07-06T04:40:28.069Z,19.5
2018-07-06T04:41:29.424Z,19.4
2018-07-06T04:42:30.803Z,19.4
2018-07-06T04:43:32.168Z,19.5
2018-07-06T04:44:33.529Z,19.5
2018-07-06T04:45:34.912Z,19.5
2018-07-06T04:46:36.273Z,19.5
2018-07-06T04:47:37.659Z,19.6
2018-07-06T04:48:39.024Z,19.6
2018-07-06T04:49:40.410Z,19.6
2018-07-06T04:50:41.770Z,19.6
2018-07-06T04:51:43.134Z,19.6
2018-07-06T04:52:44.540Z,19.6
2018-07-06T04:53:45.909Z,19.6
2018-07-06T04:54:48.034Z,19.6
2018-07-06T04:55:49.409Z,19.6
2018-07-06T04:56:54.053Z,19.6
2018-07-06T04:57:55.261Z,19.6
2018-07-06T04:58:56.648Z,19.7
2018-07-06T04:59:58.080Z,19.7
2018-07-06T05:00:59.345Z,19.7
2018-07-06T05:02:00.720Z,19.7
2018-07-06T05:03:02.103Z,19.8
2018-07-06T05:04:03.484Z,19.8
2018-07-06T05:05:05.490Z,19.8
2018-07-06T05:06:06.867Z,19.8
2018-07-06T05:07:08.310Z,19.8
2018-07-06T05:08:09.685Z,19.8
2018-07-06T05:09:11.050Z,19.8
2018-07-06T05:10:12.420Z,19.8
2018-07-06T05:11:14.303Z,19.9
2018-07-06T05:12:15.687Z,19.9
2018-07-06T05:13:17.051Z,19.8
2018-07-06T05:14:18.437Z,19.9
2018-07-06T05:15:19.804Z,19.9
2018-07-06T05:16:21.174Z,19.9
2018-07-06T05:17:22.540Z,19.9
2018-07-06T05:18:23.925Z,20.0
2018-07-06T05:19:25.290Z,20.0
2018-07-06T05:20:26.663Z,20.0
2018-07-06T05:21:28.025Z,20.0
2018-07-06T05:22:29.434Z,19.9
2018-07-06T05:23:30.782Z,19.9
2018-07-06T05:24:32.150Z,19.9
2018-07-06T05:25:33.525Z,20.1
2018-07-06T05:26:34.905Z,20.1
2018-07-06T05:27:36.270Z,20.0
2018-07-06T05:28:37.648Z,20.0
2018-07-06T05:29:39.009Z,20.1
2018-07-06T05:30:40.381Z,20.1
2018-07-06T05:31:41.766Z,20.1
2018-07-06T05:32:43.139Z,20.1
2018-07-06T05:33:45.281Z,20.1
2018-07-06T05:34:46.655Z,20.2
2018-07-06T05:35:48.026Z,20.3
2018-07-06T05:36:49.392Z,20.2
2018-07-06T05:37:50.817Z,20.3
2018-07-06T05:38:52.144Z,20.2
2018-07-06T05:39:53.512Z,20.4
2018-07-06T05:40:54.876Z,20.2
2018-07-06T05:41:56.250Z,20.3
2018-07-06T05:42:57.623Z,20.2
2018-07-06T05:43:59.001Z,20.3
2018-07-06T05:45:00.376Z,20.2
2018-07-06T05:46:01.768Z,20.2
2018-07-06T05:47:03.145Z,20.3
2018-07-06T05:48:04.525Z,20.2
2018-07-06T05:49:05.890Z,20.4
2018-07-06T05:50:07.270Z,20.3
2018-07-06T05:51:08.676Z,20.4
2018-07-06T05:52:10.118Z,20.5
2018-07-06T05:53:11.444Z,20.5
2018-07-06T05:54:12.841Z,20.5
2018-07-06T05:55:14.255Z,20.5
2018-07-06T05:56:15.621Z,20.5
2018-07-06T05:57:17.030Z,20.5
2018-07-06T05:58:18.500Z,20.6
2018-07-06T05:59:19.900Z,20.6
2018-07-06T06:00:21.265Z,20.6
2018-07-06T06:01:22.650Z,20.7
2018-07-06T06:02:24.032Z,20.6
2018-07-06T06:03:25.419Z,20.7
2018-07-06T06:04:26.805Z,20.7
2018-07-06T06:05:28.240Z,20.7
2018-07-06T06:06:29.616Z,20.7
2018-07-06T06:07:30.991Z,20.8
2018-07-06T06:08:32.381Z,20.7
2018-07-06T06:09:33.762Z,20.8
2018-07-06T06:10:35.149Z,20.7
2018-07-06T06:11:36.501Z,20.7
2018-07-06T06:12:37.911Z,20.7
2018-07-06T06:13:39.294Z,20.7
2018-07-06T06:14:40.686Z,20.7
2018-07-06T06:15:42.050Z,20.8
2018-07-06T06:16:43.501Z,20.8
2018-07-06T06:17:44.871Z,20.9
2018-07-06T06:18:46.360Z,20.9
2018-07-06T06:19:47.665Z,20.9
2018-07-06T06:20:49.046Z,21.0
2018-07-06T06:21:50.435Z,21.0
2018-07-06T06:22:51.806Z,21.1
2018-07-06T06:23:53.186Z,21.2
2018-07-06T06:24:54.633Z,21.2
2018-07-06T06:25:55.912Z,21.2
2018-07-06T06:26:57.281Z,21.3
2018-07-06T06:27:58.676Z,21.2
2018-07-06T06:29:00.052Z,21.3
2018-07-06T06:30:01.442Z,21.2
2018-07-06T06:31:02.825Z,21.3
2018-07-06T06:32:04.192Z,21.4
2018-07-06T06:33:05.655Z,21.3
2018-07-06T06:34:06.957Z,21.3
2018-07-06T06:35:08.326Z,21.4
2018-07-06T06:36:09.705Z,21.5
2018-07-06T06:37:11.086Z,21.5
2018-07-06T06:38:12.466Z,21.5
2018-07-06T06:39:13.855Z,21.7
2018-07-06T06:40:15.233Z,21.6
2018-07-06T06:41:16.615Z,21.7
2018-07-06T06:42:17.997Z,21.7
2018-07-06T06:43:19.373Z,21.9
2018-07-06T06:44:20.746Z,21.9
2018-07-06T06:45:22.116Z,22.0
2018-07-06T06:46:23.495Z,22.0
2018-07-06T06:47:24.882Z,22.1
2018-07-06T06:48:26.267Z,22.2
2018-07-06T06:49:27.635Z,22.3
2018-07-06T06:50:29.026Z,22.3
2018-07-06T06:51:30.397Z,22.5
2018-07-06T06:52:32.736Z,22.5
2018-07-06T06:53:34.117Z,22.4
2018-07-06T06:54:35.494Z,22.4
2018-07-06T06:55:36.873Z,22.5
2018-07-06T06:56:38.246Z,22.5
2018-07-06T06:57:39.627Z,22.7
2018-07-06T06:58:41.011Z,22.7
2018-07-06T06:59:42.421Z,22.8
2018-07-06T07:00:44.443Z,22.8
2018-07-06T07:01:45.832Z,22.7
2018-07-06T07:02:47.220Z,22.7
2018-07-06T07:03:48.602Z,22.7
2018-07-06T07:04:49.972Z,22.6
2018-07-06T07:05:51.346Z,22.5
2018-07-06T07:06:52.755Z,22.4
2018-07-06T07:07:54.143Z,22.3
2018-07-06T07:08:55.528Z,22.3
2018-07-06T07:09:56.901Z,22.3
2018-07-06T07:10:58.274Z,22.3
2018-07-06T07:11:59.663Z,22.3
2018-07-06T07:13:01.047Z,22.3
2018-07-06T07:14:02.455Z,22.2
2018-07-06T07:15:03.821Z,22.3
2018-07-06T07:16:05.191Z,22.2
2018-07-06T07:17:06.577Z,22.4
2018-07-06T07:18:07.958Z,22.3
2018-07-06T07:19:09.332Z,22.5
2018-07-06T07:20:10.712Z,22.3
2018-07-06T07:21:12.098Z,22.5
2018-07-06T07:22:13.538Z,22.5
2018-07-06T07:23:14.876Z,22.5
2018-07-06T07:24:16.261Z,22.5
2018-07-06T07:25:17.627Z,22.5
2018-07-06T07:26:18.991Z,22.4
2018-07-06T07:27:20.378Z,22.4
2018-07-06T07:28:21.779Z,22.4
2018-07-06T07:29:23.137Z,22.5
2018-07-06T07:30:24.503Z,22.4
2018-07-06T07:31:25.892Z,22.5
2018-07-06T07:32:27.284Z,22.5
2018-07-06T07:33:28.651Z,22.5
2018-07-06T07:34:30.034Z,22.5
2018-07-06T07:35:31.437Z,22.5
2018-07-06T07:36:32.808Z,22.5
2018-07-06T07:37:34.207Z,22.4
2018-07-06T07:38:35.581Z,22.5
2018-07-06T07:39:36.960Z,22.5
2018-07-06T07:40:38.344Z,22.4
2018-07-06T07:41:39.717Z,22.6
2018-07-06T07:42:41.103Z,22.6
2018-07-06T07:43:42.478Z,22.7
2018-07-06T07:44:43.891Z,22.7
2018-07-06T07:45:45.256Z,22.8
2018-07-06T07:46:46.636Z,22.9
2018-07-06T07:47:48.068Z,23.0
2018-07-06T07:48:49.447Z,23.1
2018-07-06T07:49:50.831Z,23.3
2018-07-06T07:50:52.208Z,23.2
2018-07-06T07:51:53.567Z,23.3
2018-07-06T07:52:54.997Z,23.4
2018-07-06T07:53:56.384Z,23.6
2018-07-06T07:54:57.802Z,23.7
2018-07-06T07:55:59.157Z,23.8
2018-07-06T07:57:00.528Z,23.9
2018-07-06T07:58:01.919Z,24.0
2018-07-06T07:59:03.335Z,24.2
2018-07-06T08:00:04.783Z,24.3
2018-07-06T08:01:06.277Z,24.4
2018-07-06T08:02:07.531Z,24.6
2018-07-06T08:03:08.918Z,24.6
2018-07-06T08:04:10.300Z,24.6
2018-07-06T08:05:11.678Z,24.5
2018-07-06T08:06:13.067Z,24.5
2018-07-06T08:07:14.492Z,24.4
2018-07-06T08:08:15.872Z,24.3
2018-07-06T08:09:17.286Z,24.3
2018-07-06T08:10:18.708Z,24.3
2018-07-06T08:11:20.094Z,24.3
2018-07-06T08:12:21.483Z,24.4
2018-07-06T08:13:22.868Z,24.5
2018-07-06T08:14:24.312Z,24.5
2018-07-06T08:15:25.632Z,24.6
2018-07-06T08:16:27.017Z,24.8
2018-07-06T08:17:28.409Z,24.8
2018-07-06T08:18:29.784Z,24.9
2018-07-06T08:19:31.173Z,25.0
2018-07-06T08:20:32.597Z,24.8
2018-07-06T08:21:33.989Z,24.8
2018-07-06T08:22:35.373Z,24.9
2018-07-06T08:23:36.768Z,24.9
2018-07-06T08:24:38.172Z,25.0
2018-07-06T08:25:39.566Z,25.1
2018-07-06T08:26:40.963Z,25.2
2018-07-06T08:27:42.623Z,25.3
2018-07-06T08:28:44.955Z,25.3
2018-07-06T08:29:46.362Z,25.2
2018-07-06T08:30:47.728Z,25.3
2018-07-06T08:31:49.132Z,25.1
2018-07-06T08:32:50.507Z,24.9
2018-07-06T08:33:51.882Z,24.8
2018-07-06T08:34:53.269Z,24.6
2018-07-06T08:35:54.643Z,24.5
2018-07-06T08:36:56.040Z,24.4
2018-07-06T08:37:57.419Z,24.2
2018-07-06T08:38:58.808Z,24.1
2018-07-06T08:40:00.193Z,24.1
2018-07-06T08:41:01.573Z,24.0
2018-07-06T08:42:02.958Z,23.9
2018-07-06T08:43:04.333Z,23.8
2018-07-06T08:44:05.742Z,23.9
2018-07-06T08:45:09.917Z,23.9
2018-07-06T08:46:11.303Z,24.0
2018-07-06T08:47:12.679Z,24.1
2018-07-06T08:48:14.083Z,24.2
2018-07-06T08:49:15.468Z,24.5
2018-07-06T08:50:16.927Z,24.7
2018-07-06T08:51:18.407Z,24.8
2018-07-06T08:52:19.792Z,24.9
2018-07-06T08:53:21.171Z,25.0
2018-07-06T08:54:22.567Z,25.1
2018-07-06T08:55:23.948Z,25.1
2018-07-06T08:56:25.330Z,25.2
2018-07-06T08:57:26.707Z,25.4
2018-07-06T08:58:28.191Z,25.6
2018-07-06T08:59:29.443Z,25.6
2018-07-06T09:00:30.870Z,25.6
2018-07-06T09:01:33.234Z,25.5
2018-07-06T09:02:34.604Z,25.5
2018-07-06T09:03:35.989Z,25.4
2018-07-06T09:04:37.407Z,25.4
2018-07-06T09:05:38.774Z,25.3
2018-07-06T09:06:40.157Z,25.1
2018-07-06T09:07:41.793Z,25.0
2018-07-06T09:08:43.119Z,24.9
2018-07-06T09:09:44.580Z,24.8
2018-07-06T09:10:45.973Z,24.8
2018-07-06T09:11:47.339Z,24.8
2018-07-06T09:12:48.742Z,24.8
2018-07-06T09:13:50.127Z,24.9
2018-07-06T09:14:51.526Z,25.1
2018-07-06T09:15:52.919Z,25.1
2018-07-06T09:16:54.348Z,25.1
2018-07-06T09:17:55.754Z,25.1
2018-07-06T09:18:57.129Z,25.1
2018-07-06T09:19:58.772Z,25.2
2018-07-06T09:20:59.873Z,25.1
2018-07-06T09:22:02.020Z,25.2
2018-07-06T09:23:03.491Z,25.2
2018-07-06T09:24:04.780Z,25.2
2018-07-06T09:25:06.165Z,25.1
2018-07-06T09:26:07.951Z,25.0
2018-07-06T09:27:09.007Z,25.0
2018-07-06T09:28:10.396Z,24.9
2018-07-06T09:29:11.788Z,24.8
2018-07-06T09:30:13.174Z,24.8
2018-07-06T09:31:14.647Z,24.8
2018-07-06T09:32:16.048Z,24.9
2018-07-06T09:33:17.437Z,25.0
2018-07-06T09:34:18.822Z,25.1
2018-07-06T09:35:20.241Z,25.2
2018-07-06T09:36:21.636Z,25.4
2018-07-06T09:37:23.043Z,25.4
2018-07-06T09:38:24.430Z,25.4
2018-07-06T09:39:25.824Z,25.4
2018-07-06T09:40:27.198Z,25.3
2018-07-06T09:41:28.594Z,25.1
2018-07-06T09:42:29.979Z,25.0
2018-07-06T09:43:31.363Z,25.0
2018-07-06T09:44:32.748Z,25.0
2018-07-06T09:45:34.144Z,24.9
2018-07-06T09:46:35.520Z,24.9
2018-07-06T09:47:36.898Z,24.9
2018-07-06T09:48:38.310Z,24.8
2018-07-06T09:49:39.707Z,24.9
2018-07-06T09:50:41.118Z,25.1
2018-07-06T09:51:42.471Z,25.2
2018-07-06T09:52:43.885Z,25.3
2018-07-06T09:53:45.264Z,25.5
2018-07-06T09:54:46.649Z,25.7
2018-07-06T09:55:48.035Z,25.9
2018-07-06T09:56:49.426Z,25.9
2018-07-06T09:57:50.830Z,25.9
2018-07-06T09:58:52.200Z,25.8
2018-07-06T09:59:53.600Z,25.9
2018-07-06T10:00:54.980Z,25.8
2018-07-06T10:01:56.389Z,25.8
2018-07-06T10:02:57.843Z,25.8
2018-07-06T10:03:59.228Z,26.0
2018-07-06T10:05:00.625Z,26.1
2018-07-06T10:06:02.009Z,26.1
2018-07-06T10:07:03.406Z,26.1
2018-07-06T10:08:04.799Z,26.1
2018-07-06T10:09:06.193Z,26.1
2018-07-06T10:10:07.637Z,26.1
2018-07-06T10:11:08.994Z,26.2
2018-07-06T10:12:10.380Z,26.3
2018-07-06T10:13:11.774Z,26.3
2018-07-06T10:14:13.165Z,26.3
2018-07-06T10:15:14.600Z,26.3
2018-07-06T10:16:16.040Z,26.4
2018-07-06T10:17:17.440Z,26.4
2018-07-06T10:18:18.859Z,26.5
2018-07-06T10:19:20.263Z,26.6
2018-07-06T10:20:21.665Z,26.6
2018-07-06T10:21:23.044Z,26.5
2018-07-06T10:22:24.438Z,26.5
2018-07-06T10:23:25.831Z,26.6
2018-07-06T10:24:27.343Z,26.6
2018-07-06T10:25:28.730Z,26.7
2018-07-06T10:26:30.118Z,26.7
2018-07-06T10:27:31.511Z,26.8
2018-07-06T10:28:32.904Z,26.8
2018-07-06T10:29:34.300Z,27.0
2018-07-06T10:30:35.697Z,27.1
2018-07-06T10:31:37.085Z,27.1
2018-07-06T10:32:38.478Z,27.2
2018-07-06T10:33:39.917Z,27.0
2018-07-06T10:34:41.226Z,27.0
2018-07-06T10:35:42.609Z,27.1
2018-07-06T10:36:44.914Z,27.1
2018-07-06T10:37:46.388Z,27.1
2018-07-06T10:38:47.778Z,27.1
2018-07-06T10:39:49.266Z,27.1
2018-07-06T10:40:50.593Z,27.2
2018-07-06T10:41:51.995Z,27.2
2018-07-06T10:42:53.379Z,27.2
2018-07-06T10:43:54.764Z,27.3
2018-07-06T10:44:56.156Z,27.4
2018-07-06T10:45:57.559Z,27.4
2018-07-06T10:46:58.948Z,27.5
2018-07-06T10:48:00.347Z,27.6
2018-07-06T10:49:01.736Z,27.8
2018-07-06T10:50:03.134Z,27.8
2018-07-06T10:51:04.526Z,27.8
2018-07-06T10:52:05.921Z,27.7
2018-07-06T10:53:07.318Z,27.8
2018-07-06T10:54:08.715Z,27.9
2018-07-06T10:55:10.119Z,27.9
2018-07-06T10:56:11.516Z,28.1
2018-07-06T10:57:12.927Z,28.1
2018-07-06T10:58:14.346Z,28.1
2018-07-06T10:59:15.758Z,28.1
2018-07-06T11:00:17.162Z,28.2
2018-07-06T11:01:18.623Z,28.1
2018-07-06T11:02:20.032Z,28.2
2018-07-06T11:03:21.436Z,28.2
2018-07-06T11:04:22.827Z,28.1
2018-07-06T11:05:24.226Z,28.1
2018-07-06T11:06:25.664Z,28.2
2018-07-06T11:07:27.069Z,28.1
2018-07-06T11:08:28.521Z,28.2
2018-07-06T11:09:29.905Z,28.2
2018-07-06T11:10:31.305Z,28.3
2018-07-06T11:11:32.774Z,28.4
2018-07-06T11:12:34.086Z,28.2
2018-07-06T11:13:35.485Z,28.2
2018-07-06T11:14:36.932Z,28.2
2018-07-06T11:15:38.359Z,28.2
2018-07-06T11:16:39.870Z,28.1
2018-07-06T11:17:41.410Z,27.9
2018-07-06T11:18:42.802Z,28.1
2018-07-06T11:19:44.275Z,28.1
2018-07-06T11:20:45.676Z,28.1
2018-07-06T11:21:47.094Z,27.9
2018-07-06T11:22:48.562Z,27.9
2018-07-06T11:23:49.950Z,28.0
2018-07-06T11:24:51.371Z,28.1
2018-07-06T11:25:52.765Z,28.1
2018-07-06T11:26:54.236Z,28.2
2018-07-06T11:27:55.620Z,28.4
2018-07-06T11:28:57.012Z,28.4
2018-07-06T11:29:58.405Z,28.4
2018-07-06T11:30:59.813Z,28.4
2018-07-06T11:32:01.267Z,28.2
2018-07-06T11:33:02.625Z,28.3
2018-07-06T11:34:04.034Z,28.2
2018-07-06T11:35:05.432Z,28.2
2018-07-06T11:36:06.830Z,28.3
2018-07-06T11:37:08.236Z,28.4
2018-07-06T11:38:09.704Z,28.5
2018-07-06T11:39:11.045Z,28.6
2018-07-06T11:40:12.428Z,28.6
2018-07-06T11:41:13.875Z,28.7
2018-07-06T11:42:15.276Z,28.6
2018-07-06T11:43:16.667Z,28.8
2018-07-06T11:44:18.051Z,28.7
2018-07-06T11:45:19.525Z,28.6
2018-07-06T11:46:20.885Z,28.6
2018-07-06T11:47:22.281Z,28.6
2018-07-06T11:48:23.665Z,28.6
2018-07-06T11:49:25.064Z,28.6
2018-07-06T11:50:26.491Z,28.6
2018-07-06T11:51:27.815Z,28.5
2018-07-06T11:52:29.220Z,28.5
2018-07-06T11:53:30.600Z,28.5
2018-07-06T11:54:32.630Z,28.6
2018-07-06T11:55:34.596Z,28.7
2018-07-06T11:56:36.000Z,28.7
2018-07-06T11:57:37.412Z,28.7
2018-07-06T11:58:38.816Z,28.8
2018-07-06T11:59:40.936Z,28.9
2018-07-06T12:00:42.341Z,28.8
2018-07-06T12:01:43.815Z,28.8
2018-07-06T12:02:45.184Z,28.9
2018-07-06T12:03:46.596Z,28.9
2018-07-06T12:04:47.983Z,28.9
2018-07-06T12:05:49.382Z,29.0
2018-07-06T12:06:50.775Z,29.1
2018-07-06T12:07:52.179Z,29.3
2018-07-06T12:08:53.579Z,29.3
2018-07-06T12:09:54.984Z,29.3
2018-07-06T12:10:56.377Z,29.3
2018-07-06T12:11:57.775Z,29.2
2018-07-06T12:12:59.171Z,29.1
2018-07-06T12:14:00.575Z,29.1
2018-07-06T12:15:01.971Z,29.1
2018-07-06T12:16:04.079Z,29.2
2018-07-06T12:17:05.488Z,29.2
2018-07-06T12:18:06.879Z,29.3
2018-07-06T12:19:08.280Z,29.4
2018-07-06T12:20:09.676Z,29.3
2018-07-06T12:21:11.150Z,29.4
2018-07-06T12:22:12.481Z,29.4
2018-07-06T12:23:14.875Z,29.5
2018-07-06T12:24:16.295Z,29.4
2018-07-06T12:25:17.690Z,29.3
2018-07-06T12:26:19.121Z,29.3
2018-07-06T12:27:20.512Z,29.4
2018-07-06T12:28:21.911Z,29.5
2018-07-06T12:29:23.311Z,29.5
2018-07-06T12:30:24.713Z,29.6
2018-07-06T12:31:26.093Z,29.6
2018-07-06T12:32:27.531Z,29.7
2018-07-06T12:33:28.947Z,29.6
2018-07-06T12:34:30.356Z,29.7
2018-07-06T12:35:31.807Z,29.8
2018-07-06T12:36:33.228Z,29.9
2018-07-06T12:37:34.626Z,29.9
2018-07-06T12:38:36.027Z,29.9
2018-07-06T12:39:37.420Z,29.9
2018-07-06T12:40:38.843Z,30.0
2018-07-06T12:41:40.260Z,30.0
2018-07-06T12:42:41.643Z,29.9
2018-07-06T12:43:43.051Z,29.9
2018-07-06T12:44:45.400Z,29.7
2018-07-06T12:45:46.792Z,29.7
2018-07-06T12:46:48.190Z,29.8
2018-07-06T12:47:49.585Z,29.8
2018-07-06T12:48:51.046Z,29.8
2018-07-06T12:49:52.382Z,29.8
2018-07-06T12:50:53.781Z,29.8
2018-07-06T12:51:55.161Z,29.9
2018-07-06T12:52:56.557Z,30.0
2018-07-06T12:53:57.960Z,30.0
2018-07-06T12:54:59.351Z,29.9
2018-07-06T12:56:00.744Z,29.9
2018-07-06T12:57:02.146Z,30.1
2018-07-06T12:58:03.568Z,30.1
2018-07-06T12:59:04.935Z,30.2
2018-07-06T13:00:06.326Z,30.2
2018-07-06T13:01:07.725Z,30.2
2018-07-06T13:02:09.163Z,30.1
2018-07-06T13:03:10.563Z,30.1
2018-07-06T13:04:11.955Z,30.2
2018-07-06T13:05:13.355Z,30.2
2018-07-06T13:06:15.608Z,30.1
2018-07-06T13:07:16.967Z,30.1
2018-07-06T13:08:18.392Z,30.2
2018-07-06T13:09:19.791Z,30.2
2018-07-06T13:10:21.247Z,30.2
2018-07-06T13:11:22.612Z,30.2
2018-07-06T13:12:24.022Z,30.3
2018-07-06T13:13:25.416Z,30.3
2018-07-06T13:14:26.821Z,30.2
2018-07-06T13:15:28.222Z,30.3
2018-07-06T13:16:29.609Z,30.2
2018-07-06T13:17:31.003Z,30.0
2018-07-06T13:18:32.393Z,29.9
2018-07-06T13:19:34.538Z,29.7
2018-07-06T13:20:35.152Z,29.6
2018-07-06T13:21:36.555Z,29.5
2018-07-06T13:22:37.941Z,29.5
2018-07-06T13:23:39.347Z,29.4
2018-07-06T13:24:40.733Z,29.3
2018-07-06T13:25:42.126Z,29.2
2018-07-06T13:26:43.628Z,29.0
2018-07-06T13:27:44.994Z,28.8
2018-07-06T13:28:46.395Z,28.9
2018-07-06T13:29:47.793Z,28.7
2018-07-06T13:30:49.188Z,28.7
2018-07-06T13:31:50.566Z,28.6
2018-07-06T13:32:51.947Z,28.6
2018-07-06T13:33:53.382Z,28.5
2018-07-06T13:34:54.692Z,28.5
2018-07-06T13:35:56.078Z,28.5
2018-07-06T13:36:57.462Z,28.3